Time;durP1;ratioP1;P1;durP2;ratioP2;P2;SDS_P1;SDS_P2;PMS_P1;PMS_P2;Temp;Humidity;BMP_temperature;BMP_pressure;BME280_temperature;BME280_humidity;BME280_pressure;Samples;Min_cycle;Max_cycle;Signal;HPM_P1;HPM_P2
2023/01/22 00:01:00;;;;;;;2.37;2.00;;;5.70;99.90;;;;;;5072687;28;20552;-62
2023/01/22 00:03:29;;;;;;;3.17;1.97;;;5.70;99.90;;;;;;5073659;28;20197;-64
2023/01/22 00:05:56;;;;;;;2.13;1.57;;;5.70;99.90;;;;;;5068627;28;20222;-63
2023/01/22 00:08:23;;;;;;;2.33;2.00;;;5.70;99.90;;;;;;5066187;28;21588;-63
2023/01/22 00:10:51;;;;;;;3.33;1.97;;;5.70;99.90;;;;;;5070468;28;20194;-63
2023/01/22 00:13:18;;;;;;;2.73;2.10;;;5.70;99.90;;;;;;5070393;28;20577;-63
2023/01/22 00:15:45;;;;;;;1.87;1.77;;;5.70;99.90;;;;;;5071317;28;20217;-63
2023/01/22 00:18:13;;;;;;;4.03;2.07;;;5.70;99.90;;;;;;5068885;28;20552;-61
2023/01/22 00:20:46;;;;;;;2.27;2.07;;;5.70;99.90;;;;;;5070856;28;20208;-61
2023/01/22 00:23:13;;;;;;;1.67;1.57;;;5.70;99.90;;;;;;5070204;28;20199;-62
2023/01/22 00:25:40;;;;;;;1.97;1.73;;;5.70;99.90;;;;;;5067089;28;20206;-62
2023/01/22 00:28:07;;;;;;;1.80;1.40;;;5.70;99.90;;;;;;5068429;28;20210;-62
2023/01/22 00:30:35;;;;;;;3.57;2.10;;;5.70;99.90;;;;;;5071682;28;20209;-63
2023/01/22 00:33:02;;;;;;;2.13;1.93;;;5.80;99.90;;;;;;5071453;28;20196;-63
2023/01/22 00:35:29;;;;;;;3.70;2.20;;;5.80;99.90;;;;;;5072300;28;20665;-63
2023/01/22 00:37:58;;;;;;;2.43;2.00;;;5.80;99.90;;;;;;5066861;28;20229;-62
2023/01/22 00:40:25;;;;;;;2.90;1.90;;;5.80;99.90;;;;;;5070850;28;20195;-63
2023/01/22 00:42:53;;;;;;;2.60;1.90;;;5.80;99.90;;;;;;5068753;28;20221;-62
2023/01/22 00:45:20;;;;;;;2.43;1.90;;;5.80;99.90;;;;;;5070616;28;20681;-62
2023/01/22 00:47:47;;;;;;;2.20;2.00;;;5.80;99.90;;;;;;5070448;28;20290;-62
2023/01/22 00:50:17;;;;;;;1.90;1.67;;;5.90;99.90;;;;;;5070027;28;20547;-62
2023/01/22 00:52:45;;;;;;;2.80;1.80;;;5.80;99.90;;;;;;5066103;28;20704;-62
2023/01/22 00:55:14;;;;;;;4.70;2.17;;;5.90;99.90;;;;;;5069869;28;20208;-62
2023/01/22 00:57:41;;;;;;;4.40;2.13;;;5.80;99.90;;;;;;5069391;28;20248;-61
2023/01/22 01:00:09;;;;;;;3.13;1.93;;;5.80;99.90;;;;;;5071044;28;20198;-62
2023/01/22 01:03:25;;;;;;;2.80;2.27;;;5.80;99.90;;;;;;5068691;28;20287;-62
2023/01/22 01:05:24;;;;;;;2.37;1.83;;;5.80;99.90;;;;;;5069647;28;20235;-63
2023/01/22 01:07:51;;;;;;;4.07;2.27;;;5.80;99.90;;;;;;5068728;28;20208;-61
2023/01/22 01:10:20;;;;;;;2.07;1.87;;;5.90;99.90;;;;;;5069962;28;20198;-62
2023/01/22 01:12:47;;;;;;;2.73;1.97;;;5.80;99.90;;;;;;5070307;28;20198;-63
2023/01/22 01:15:14;;;;;;;2.30;1.80;;;5.90;99.90;;;;;;5066468;28;20595;-62
2023/01/22 01:17:41;;;;;;;2.87;2.33;;;5.90;99.90;;;;;;5068594;28;20568;-63
2023/01/22 01:20:10;;;;;;;2.40;2.20;;;5.90;99.90;;;;;;5069827;28;20212;-63
2023/01/22 01:22:37;;;;;;;2.50;2.00;;;5.90;99.90;;;;;;5067760;28;20300;-63
2023/01/22 01:25:05;;;;;;;3.23;2.10;;;5.90;99.90;;;;;;5069613;28;20188;-62
2023/01/22 01:27:33;;;;;;;4.13;2.10;;;5.80;99.90;;;;;;5069702;28;20218;-63
2023/01/22 01:30:00;;;;;;;3.27;2.17;;;5.90;99.90;;;;;;5068586;28;20191;-63
2023/01/22 01:32:28;;;;;;;2.53;1.80;;;5.80;99.90;;;;;;5068534;28;20195;-62
2023/01/22 01:34:55;;;;;;;3.00;2.60;;;5.80;99.90;;;;;;5069730;28;20198;-63
2023/01/22 01:37:22;;;;;;;2.77;2.30;;;5.80;99.90;;;;;;5069336;28;20203;-63
2023/01/22 01:39:51;;;;;;;3.13;2.20;;;5.80;99.90;;;;;;5068944;28;20233;-63
2023/01/22 01:42:25;;;;;;;3.57;1.93;;;5.80;99.90;;;;;;5067608;28;20196;-63
2023/01/22 01:45:23;;;;;;;4.33;3.17;;;5.80;99.90;;;;;;5066025;28;20203;-63
2023/01/22 01:47:56;;;;;;;4.80;3.10;;;5.70;99.90;;;;;;5064054;28;20290;-62
2023/01/22 01:50:26;;;;;;;4.97;2.70;;;5.80;99.90;;;;;;5069945;28;20194;-63
2023/01/22 01:52:53;;;;;;;3.47;2.57;;;5.70;99.90;;;;;;5074026;28;20637;-63
2023/01/22 01:55:27;;;;;;;2.43;2.23;;;5.70;99.90;;;;;;5070310;28;20206;-63
2023/01/22 01:57:57;;;;;;;4.53;2.10;;;5.70;99.90;;;;;;5063984;28;20212;-62
2023/01/22 02:00:28;;;;;;;2.57;2.20;;;5.70;99.90;;;;;;5066708;28;20199;-63
2023/01/22 02:02:56;;;;;;;2.37;1.70;;;5.70;99.90;;;;;;5063302;28;20197;-63
2023/01/22 02:05:25;;;;;;;2.10;1.60;;;5.80;99.90;;;;;;5070874;28;20689;-63
2023/01/22 02:07:52;;;;;;;2.80;1.70;;;5.70;99.90;;;;;;5066867;28;20629;-64
2023/01/22 02:10:19;;;;;;;2.37;1.83;;;5.80;99.90;;;;;;5068345;28;20237;-63
2023/01/22 02:12:46;;;;;;;2.37;1.83;;;5.70;99.90;;;;;;5067191;28;20206;-64
2023/01/22 02:15:14;;;;;;;2.17;1.77;;;5.80;99.90;;;;;;5070090;28;20816;-62
2023/01/22 02:17:43;;;;;;;2.00;1.77;;;5.70;99.90;;;;;;5069055;28;20194;-61
2023/01/22 02:20:11;;;;;;;2.20;2.00;;;5.70;99.90;;;;;;5069309;28;20574;-62
2023/01/22 02:22:40;;;;;;;2.93;2.00;;;5.70;99.90;;;;;;5068492;28;20201;-62
2023/01/22 02:25:08;;;;;;;2.90;2.00;;;5.70;99.90;;;;;;5067082;28;20725;-62
2023/01/22 02:27:35;;;;;;;1.80;1.43;;;5.70;99.90;;;;;;5063734;28;20214;-62
2023/01/22 02:30:06;;;;;;;1.80;1.70;;;5.70;99.90;;;;;;5066727;28;20210;-62
2023/01/22 02:32:35;;;;;;;1.83;1.60;;;5.80;99.90;;;;;;5061652;28;20205;-62
2023/01/22 02:35:02;;;;;;;1.93;1.67;;;5.80;99.90;;;;;;5068843;28;20273;-62
2023/01/22 02:37:30;;;;;;;3.30;2.10;;;5.80;99.90;;;;;;5063156;28;20194;-61
2023/01/22 02:39:59;;;;;;;2.37;2.20;;;5.80;99.90;;;;;;5067235;28;20208;-62
2023/01/22 02:42:26;;;;;;;2.57;2.37;;;5.80;99.90;;;;;;5069956;28;20192;-62
2023/01/22 02:44:54;;;;;;;2.30;2.10;;;5.80;99.90;;;;;;5075225;28;20212;-62
2023/01/22 02:47:21;;;;;;;2.77;2.03;;;5.80;99.90;;;;;;5071739;28;20222;-63
2023/01/22 02:49:48;;;;;;;2.40;2.00;;;5.80;99.90;;;;;;5073764;28;20672;-62
2023/01/22 02:52:17;;;;;;;2.23;2.00;;;5.70;99.90;;;;;;5071694;28;20285;-62
2023/01/22 02:54:46;;;;;;;2.13;1.97;;;5.70;99.90;;;;;;5071736;28;20207;-62
2023/01/22 02:57:14;;;;;;;3.63;2.17;;;5.80;99.90;;;;;;5071509;28;20494;-62
2023/01/22 02:59:41;;;;;;;3.50;1.80;;;5.70;99.90;;;;;;5072583;28;20677;-63
2023/01/22 03:02:11;;;;;;;2.00;1.80;;;5.70;99.90;;;;;;5072851;28;20928;-63
2023/01/22 03:04:38;;;;;;;1.70;1.60;;;5.80;99.90;;;;;;5074761;28;20652;-63
2023/01/22 03:07:05;;;;;;;2.50;2.00;;;5.80;99.90;;;;;;5073220;28;20225;-62
2023/01/22 03:09:32;;;;;;;2.87;1.83;;;5.80;99.90;;;;;;5074227;28;20659;-63
2023/01/22 03:12:00;;;;;;;2.20;2.00;;;5.80;99.90;;;;;;5073374;28;20284;-62
2023/01/22 03:22:48;;;;;;;2.70;2.17;;;5.70;99.90;;;;;;5069694;28;20186;-62
2023/01/22 03:25:15;;;;;;;2.87;2.20;;;5.80;99.90;;;;;;5075007;28;20206;-62
2023/01/22 03:30:26;;;;;;;2.73;2.07;;;5.70;99.90;;;;;;5074831;28;20191;-62
2023/01/22 03:32:53;;;;;;;3.27;2.40;;;5.70;99.90;;;;;;5072857;28;20205;-63
2023/01/22 03:35:20;;;;;;;2.93;2.10;;;5.70;99.90;;;;;;5075014;28;20212;-61
2023/01/22 03:38:02;;;;;;;2.03;1.83;;;5.70;99.90;;;;;;5070010;28;20304;-62
2023/01/22 03:40:29;;;;;;;2.13;1.90;;;5.60;99.90;;;;;;5073159;28;20652;-62
2023/01/22 03:42:57;;;;;;;3.50;2.07;;;5.70;99.90;;;;;;5072366;28;20700;-62
2023/01/22 03:45:26;;;;;;;2.23;2.00;;;5.70;99.90;;;;;;5072648;28;20231;-62
2023/01/22 03:47:54;;;;;;;2.30;2.00;;;5.70;99.90;;;;;;5072143;28;20214;-62
2023/01/22 03:50:29;;;;;;;3.00;2.33;;;5.70;99.90;;;;;;5072819;28;20200;-62
2023/01/22 03:52:57;;;;;;;2.43;2.20;;;5.80;99.90;;;;;;5072498;28;20204;-62
2023/01/22 03:55:25;;;;;;;2.30;2.10;;;5.70;99.90;;;;;;5073303;28;20572;-62
2023/01/22 03:57:53;;;;;;;2.13;1.90;;;5.70;99.90;;;;;;5067107;28;20285;-62
2023/01/22 04:00:21;;;;;;;3.13;1.77;;;5.80;99.90;;;;;;5071768;28;20198;-62
2023/01/22 04:02:52;;;;;;;2.00;1.80;;;5.80;99.90;;;;;;5068919;28;20698;-62
2023/01/22 04:05:23;;;;;;;3.53;2.03;;;5.80;99.90;;;;;;5069025;28;20313;-62
2023/01/22 04:07:51;;;;;;;2.57;2.20;;;5.80;99.90;;;;;;5071478;28;20429;-62
2023/01/22 04:10:21;;;;;;;1.87;1.57;;;5.80;99.90;;;;;;5066679;28;20206;-62
2023/01/22 04:12:49;;;;;;;1.97;1.77;;;5.80;99.90;;;;;;5071498;28;20256;-62
2023/01/22 04:15:20;;;;;;;1.80;1.60;;;5.80;99.90;;;;;;5070008;28;20290;-62
2023/01/22 04:17:49;;;;;;;2.60;1.80;;;5.80;99.90;;;;;;5065173;28;20202;-62
2023/01/22 04:20:48;;;;;;;2.20;2.03;;;5.80;99.90;;;;;;5046082;28;20695;-62
2023/01/22 04:23:21;;;;;;;2.43;2.23;;;5.80;99.90;;;;;;5069734;28;20209;-62
2023/01/22 04:25:52;;;;;;;2.13;1.93;;;5.80;99.90;;;;;;5069220;28;20229;-62
2023/01/22 04:28:20;;;;;;;2.73;1.90;;;5.80;99.90;;;;;;5066480;28;20245;-62
2023/01/22 04:30:55;;;;;;;2.00;1.90;;;5.80;99.90;;;;;;5071599;28;20223;-62
2023/01/22 04:33:51;;;;;;;2.13;2.03;;;5.80;99.90;;;;;;5016456;28;20235;-63
2023/01/22 04:36:24;;;;;;;2.30;2.10;;;5.80;99.90;;;;;;5067131;28;20707;-63
2023/01/22 04:38:51;;;;;;;4.10;2.13;;;5.90;99.90;;;;;;5068209;28;20297;-63
2023/01/22 04:41:19;;;;;;;2.77;2.23;;;5.80;99.90;;;;;;5069151;28;20662;-62
2023/01/22 04:43:47;;;;;;;2.20;2.00;;;5.90;99.90;;;;;;5069554;28;20207;-63
2023/01/22 04:46:14;;;;;;;3.33;2.37;;;5.90;99.90;;;;;;5068397;28;20231;-63
2023/01/22 04:48:42;;;;;;;3.87;2.20;;;5.80;99.90;;;;;;5069818;28;20211;-63
2023/01/22 04:51:10;;;;;;;2.33;2.13;;;5.80;99.90;;;;;;5068040;28;20199;-63
2023/01/22 04:53:38;;;;;;;3.10;2.20;;;5.80;99.90;;;;;;5069691;28;20203;-63
2023/01/22 04:56:07;;;;;;;3.03;2.57;;;5.80;99.90;;;;;;5070412;28;20195;-61
2023/01/22 04:58:34;;;;;;;2.43;2.23;;;5.80;99.90;;;;;;5069392;28;20851;-61
2023/01/22 05:01:01;;;;;;;3.67;2.20;;;5.80;99.90;;;;;;5067919;28;20734;-61
2023/01/22 05:03:29;;;;;;;2.20;2.00;;;5.80;99.90;;;;;;5069837;28;20638;-61
2023/01/22 05:05:57;;;;;;;2.23;2.03;;;5.80;99.90;;;;;;5068130;28;20310;-62
2023/01/22 05:08:24;;;;;;;2.20;2.00;;;5.80;99.90;;;;;;5070738;28;20214;-62
2023/01/22 05:10:52;;;;;;;1.90;1.80;;;5.80;99.90;;;;;;5067771;28;20685;-63
2023/01/22 05:13:28;;;;;;;2.13;1.77;;;5.80;99.90;;;;;;5066656;28;20554;-63
2023/01/22 05:15:55;;;;;;;2.40;1.93;;;5.80;99.90;;;;;;5066904;28;20906;-63
2023/01/22 05:18:24;;;;;;;2.93;2.23;;;5.80;99.90;;;;;;5070469;28;20558;-63
2023/01/22 05:20:52;;;;;;;1.60;1.50;;;5.80;99.90;;;;;;5071039;28;20202;-62
2023/01/22 05:23:22;;;;;;;3.63;2.53;;;5.80;99.90;;;;;;5069488;28;20207;-62
2023/01/22 05:25:50;;;;;;;3.20;2.87;;;5.80;99.90;;;;;;5071101;28;20215;-62
2023/01/22 05:28:24;;;;;;;2.67;2.47;;;5.90;99.90;;;;;;5066215;28;20206;-62
2023/01/22 05:31:23;;;;;;;3.87;2.40;;;5.90;99.90;;;;;;5042384;28;20195;-62
2023/01/22 05:33:59;;;;;;;2.37;2.10;;;5.80;99.90;;;;;;5067891;28;20211;-62
2023/01/22 05:36:28;;;;;;;2.27;2.07;;;5.80;99.90;;;;;;5067947;28;20203;-62
2023/01/22 05:38:59;;;;;;;4.73;2.10;;;5.80;99.90;;;;;;5065012;28;20194;-63
2023/01/22 05:41:27;;;;;;;3.73;3.00;;;5.80;99.90;;;;;;5068077;28;20588;-62
2023/01/22 05:43:57;;;;;;;3.13;2.50;;;5.80;99.90;;;;;;5069087;28;20561;-62
2023/01/22 05:46:28;;;;;;;4.27;2.43;;;5.80;99.90;;;;;;5068995;28;20699;-62
2023/01/22 05:49:13;;;;;;;3.23;2.67;;;5.80;99.90;;;;;;5066666;28;20320;-62
2023/01/22 05:51:41;;;;;;;2.40;2.20;;;5.80;99.90;;;;;;5068053;28;20280;-62
2023/01/22 05:54:08;;;;;;;2.30;2.17;;;5.80;99.90;;;;;;5067871;28;20634;-62
2023/01/22 05:56:38;;;;;;;2.90;2.10;;;5.80;99.90;;;;;;5067438;28;20214;-62
2023/01/22 05:59:07;;;;;;;2.50;2.20;;;5.90;99.90;;;;;;5068948;28;20255;-62
2023/01/22 06:01:35;;;;;;;3.10;2.80;;;5.90;99.90;;;;;;5082481;28;20199;-62
2023/01/22 06:04:03;;;;;;;1.97;1.87;;;6.00;99.90;;;;;;5068837;28;20294;-62
2023/01/22 06:06:30;;;;;;;2.60;2.40;;;5.90;99.90;;;;;;5071100;28;20234;-62
2023/01/22 06:08:58;;;;;;;4.03;2.80;;;5.90;99.90;;;;;;5067530;28;20229;-62
2023/01/22 06:11:31;;;;;;;3.77;2.80;;;5.80;99.90;;;;;;5062914;28;20213;-62
2023/01/22 06:13:58;;;;;;;4.33;3.10;;;5.80;99.90;;;;;;5067924;28;20191;-62
2023/01/22 06:16:27;;;;;;;3.20;2.77;;;5.80;99.90;;;;;;5072119;28;20197;-62
2023/01/22 06:19:11;;;;;;;4.07;2.90;;;5.80;99.90;;;;;;5068102;28;20252;-62
2023/01/22 06:21:45;;;;;;;2.90;2.70;;;5.70;99.90;;;;;;5068423;28;20223;-62
2023/01/22 06:24:13;;;;;;;5.37;2.60;;;5.70;99.90;;;;;;5064879;28;20667;-62
2023/01/22 06:26:41;;;;;;;4.10;2.60;;;5.70;99.90;;;;;;5067813;28;20646;-65
2023/01/22 06:29:11;;;;;;;4.50;2.63;;;5.70;99.90;;;;;;5069781;28;20804;-63
2023/01/22 06:31:40;;;;;;;4.80;2.80;;;5.70;99.90;;;;;;5064050;28;20195;-62
2023/01/22 06:34:09;;;;;;;5.47;2.97;;;5.80;99.90;;;;;;5076227;28;20198;-62
2023/01/22 06:36:36;;;;;;;6.40;3.13;;;5.80;99.90;;;;;;5069920;28;20602;-62
2023/01/22 06:39:05;;;;;;;5.30;2.93;;;5.70;99.90;;;;;;5063528;28;20685;-62
2023/01/22 06:41:40;;;;;;;4.00;2.90;;;5.70;99.90;;;;;;5069210;28;20281;-62
2023/01/22 06:44:10;;;;;;;4.07;3.20;;;5.70;99.90;;;;;;5067787;28;20774;-63
2023/01/22 06:46:37;;;;;;;4.23;3.10;;;5.70;99.90;;;;;;5075493;28;20218;-62
2023/01/22 06:49:12;;;;;;;6.30;3.40;;;5.70;99.90;;;;;;5065344;28;20765;-62
2023/01/22 06:51:40;;;;;;;7.03;3.83;;;5.60;99.90;;;;;;5066437;28;20189;-62
2023/01/22 06:54:07;;;;;;;5.30;3.43;;;5.60;99.90;;;;;;5062802;28;20199;-62
2023/01/22 06:56:34;;;;;;;4.90;3.10;;;5.60;99.90;;;;;;5066675;28;20210;-62
2023/01/22 06:59:04;;;;;;;4.40;3.00;;;5.60;99.90;;;;;;5066598;28;20602;-62
2023/01/22 07:01:31;;;;;;;6.17;3.17;;;5.60;99.90;;;;;;5064631;28;20275;-62
2023/01/22 07:03:58;;;;;;;4.17;3.07;;;5.60;99.90;;;;;;5068499;28;20214;-62
2023/01/22 07:06:27;;;;;;;4.67;2.97;;;5.60;99.90;;;;;;5068411;28;20653;-62
2023/01/22 07:08:55;;;;;;;4.47;2.77;;;5.60;99.90;;;;;;5064203;28;20207;-62
2023/01/22 07:11:22;;;;;;;3.87;3.00;;;5.60;99.90;;;;;;5070040;28;20210;-61
2023/01/22 07:13:49;;;;;;;4.00;3.00;;;5.60;99.90;;;;;;5068292;28;20209;-62
2023/01/22 07:16:16;;;;;;;3.80;2.70;;;5.60;99.90;;;;;;5065792;28;20198;-62
2023/01/22 07:18:43;;;;;;;4.33;2.80;;;5.60;99.90;;;;;;5065694;28;20203;-62
2023/01/22 07:21:11;;;;;;;3.67;2.50;;;5.60;99.90;;;;;;5066901;28;20197;-62
2023/01/22 07:23:41;;;;;;;3.10;2.33;;;5.70;99.90;;;;;;5064841;28;20211;-62
2023/01/22 07:26:08;;;;;;;3.40;2.70;;;5.70;99.90;;;;;;5068772;28;20207;-62
2023/01/22 07:28:35;;;;;;;7.27;3.70;;;5.70;99.90;;;;;;5064779;28;20215;-63
2023/01/22 07:31:02;;;;;;;4.77;3.53;;;5.70;99.90;;;;;;5071699;28;20233;-63
2023/01/22 07:33:30;;;;;;;6.13;4.00;;;5.70;99.90;;;;;;5073503;28;20218;-63
2023/01/22 07:35:57;;;;;;;4.87;3.27;;;5.70;99.90;;;;;;5069564;28;20203;-63
2023/01/22 07:38:27;;;;;;;3.97;3.27;;;5.70;99.90;;;;;;5067252;28;20193;-63
2023/01/22 07:41:00;;;;;;;4.13;3.03;;;5.70;99.90;;;;;;5073539;28;20631;-63
2023/01/22 07:43:28;;;;;;;5.33;3.43;;;5.70;99.90;;;;;;5067611;28;20206;-63
2023/01/22 07:45:56;;;;;;;6.37;3.23;;;5.70;99.90;;;;;;5069141;28;20207;-63
2023/01/22 07:48:24;;;;;;;5.03;3.47;;;5.70;99.90;;;;;;5073858;28;20679;-61
2023/01/22 07:50:51;;;;;;;4.83;3.83;;;5.70;99.90;;;;;;5066004;28;20201;-61
2023/01/22 07:53:18;;;;;;;4.13;3.20;;;5.60;99.90;;;;;;5071459;28;20202;-61
2023/01/22 07:55:45;;;;;;;4.80;3.17;;;5.60;99.90;;;;;;5072343;28;20187;-63
2023/01/22 07:58:14;;;;;;;5.80;3.50;;;5.60;99.90;;;;;;5065915;28;20667;-62
2023/01/22 08:00:41;;;;;;;3.47;3.10;;;5.60;99.90;;;;;;5069767;28;20204;-62
2023/01/22 08:03:10;;;;;;;3.23;2.93;;;5.60;99.90;;;;;;5069234;28;20202;-63
2023/01/22 08:05:38;;;;;;;2.90;2.70;;;5.60;99.90;;;;;;5065050;28;20261;-63
2023/01/22 08:08:07;;;;;;;4.13;3.00;;;5.60;99.90;;;;;;5072088;28;20246;-63
2023/01/22 08:10:34;;;;;;;5.73;2.97;;;5.60;99.90;;;;;;5073083;28;20313;-63
2023/01/22 08:13:01;;;;;;;2.77;2.53;;;5.60;99.90;;;;;;5063472;28;20221;-62
2023/01/22 08:15:30;;;;;;;3.83;3.07;;;5.60;99.90;;;;;;5071599;28;20193;-62
2023/01/22 08:17:57;;;;;;;3.43;3.03;;;5.60;99.90;;;;;;5069224;28;20199;-63
2023/01/22 08:20:24;;;;;;;4.17;2.83;;;5.50;99.90;;;;;;5066550;28;20197;-63
2023/01/22 08:22:51;;;;;;;3.87;3.00;;;5.60;99.90;;;;;;5071098;28;20205;-62
2023/01/22 08:25:19;;;;;;;5.40;3.60;;;5.50;99.90;;;;;;5070585;28;20193;-62
2023/01/22 08:27:46;;;;;;;5.40;3.60;;;5.50;99.90;;;;;;5067734;28;20248;-62
2023/01/22 08:30:14;;;;;;;4.13;3.30;;;5.50;99.90;;;;;;5072810;28;20212;-64
2023/01/22 08:32:44;;;;;;;3.90;3.07;;;5.50;99.90;;;;;;5066488;28;20220;-63
2023/01/22 08:35:12;;;;;;;4.13;2.60;;;5.50;99.90;;;;;;5069835;28;20225;-63
2023/01/22 08:37:39;;;;;;;4.20;3.07;;;5.50;99.90;;;;;;5070067;28;20196;-63
2023/01/22 08:40:08;;;;;;;3.90;3.40;;;5.40;99.90;;;;;;5064219;28;20189;-63
2023/01/22 08:42:35;;;;;;;4.23;3.40;;;5.40;99.90;;;;;;5072151;28;20227;-63
2023/01/22 08:45:03;;;;;;;3.67;3.03;;;5.40;99.90;;;;;;5073288;28;20236;-63
2023/01/22 08:47:30;;;;;;;3.07;2.77;;;5.40;99.90;;;;;;5063399;28;20201;-63
2023/01/22 08:50:00;;;;;;;2.73;2.33;;;5.40;99.90;;;;;;5071117;28;20214;-63
2023/01/22 08:52:28;;;;;;;4.13;3.10;;;5.40;99.90;;;;;;5067535;28;20217;-62
2023/01/22 08:54:55;;;;;;;4.50;3.73;;;5.50;99.90;;;;;;5065000;28;20253;-62
2023/01/22 08:57:22;;;;;;;6.80;3.97;;;5.40;99.90;;;;;;5072701;28;20572;-62
2023/01/22 08:59:49;;;;;;;6.10;4.20;;;5.40;99.90;;;;;;5069538;28;20201;-63
2023/01/22 09:02:16;;;;;;;6.73;4.67;;;5.40;99.90;;;;;;5061402;28;20201;-63
2023/01/22 09:04:44;;;;;;;7.60;4.73;;;5.40;99.90;;;;;;5065634;28;20230;-63
2023/01/22 09:07:12;;;;;;;10.73;5.13;;;5.30;99.90;;;;;;5069551;28;20221;-63
2023/01/22 09:09:39;;;;;;;11.10;5.77;;;5.30;99.90;;;;;;5065685;28;20202;-63
2023/01/22 09:12:06;;;;;;;9.50;6.07;;;5.30;99.90;;;;;;5071050;28;20293;-63
2023/01/22 09:14:33;;;;;;;18.27;9.23;;;5.30;99.90;;;;;;5071934;28;20195;-63
2023/01/22 09:17:01;;;;;;;16.20;8.13;;;5.20;99.90;;;;;;5064045;28;20244;-64
2023/01/22 09:19:28;;;;;;;21.47;9.27;;;5.30;99.90;;;;;;5066039;28;20197;-63
2023/01/22 09:21:55;;;;;;;20.37;10.20;;;5.20;99.90;;;;;;5069293;28;20197;-63
2023/01/22 09:24:23;;;;;;;12.23;8.27;;;5.10;99.90;;;;;;5064445;28;20204;-63
2023/01/22 09:26:50;;;;;;;11.03;7.50;;;5.20;99.90;;;;;;5068843;28;20542;-62
2023/01/22 09:29:18;;;;;;;7.50;5.57;;;5.20;99.90;;;;;;5069782;28;20224;-63
2023/01/22 09:31:45;;;;;;;7.77;4.83;;;5.20;99.90;;;;;;5065587;28;20189;-63
2023/01/22 09:34:12;;;;;;;6.57;4.40;;;5.10;99.90;;;;;;5071647;28;20197;-63
2023/01/22 09:36:40;;;;;;;6.73;4.33;;;5.20;99.90;;;;;;5064893;28;20389;-63
2023/01/22 09:39:07;;;;;;;6.67;4.77;;;5.20;99.90;;;;;;5065383;28;20194;-62
2023/01/22 09:41:38;;;;;;;8.60;4.83;;;5.20;99.90;;;;;;5068104;28;20202;-62
2023/01/22 09:44:11;;;;;;;8.50;4.70;;;5.30;99.90;;;;;;5064002;28;20531;-63
2023/01/22 09:46:43;;;;;;;7.53;4.97;;;5.20;99.90;;;;;;5068704;28;20671;-63
2023/01/22 09:49:15;;;;;;;6.40;4.60;;;5.20;99.90;;;;;;5072578;28;20227;-63
2023/01/22 09:51:44;;;;;;;5.50;3.73;;;5.30;99.90;;;;;;5059748;28;20194;-63
2023/01/22 09:54:15;;;;;;;8.30;5.03;;;5.30;99.90;;;;;;5067145;28;20249;-63
2023/01/22 09:56:45;;;;;;;8.00;5.60;;;5.30;99.90;;;;;;5071174;28;20199;-63
2023/01/22 09:59:17;;;;;;;10.33;5.30;;;5.40;99.90;;;;;;5064308;28;20219;-64
2023/01/22 10:01:47;;;;;;;7.50;4.50;;;5.40;99.90;;;;;;5068571;28;20289;-62
2023/01/22 10:04:27;;;;;;;6.93;4.20;;;5.40;99.90;;;;;;5068598;28;20599;-62
2023/01/22 10:06:57;;;;;;;10.97;5.53;;;5.50;99.90;;;;;;5065718;28;20224;-62
2023/01/22 10:09:24;;;;;;;9.37;5.47;;;5.50;99.90;;;;;;5069090;28;20253;-63
2023/01/22 10:11:55;;;;;;;9.23;5.07;;;5.40;99.90;;;;;;5068344;28;20220;-62
2023/01/22 10:14:26;;;;;;;8.63;4.40;;;5.40;99.90;;;;;;5062623;28;20268;-63
2023/01/22 10:16:54;;;;;;;7.37;4.37;;;5.50;99.90;;;;;;5068440;28;20195;-62
2023/01/22 10:19:26;;;;;;;5.63;3.73;;;5.40;99.90;;;;;;5067397;28;20201;-62
2023/01/22 10:21:58;;;;;;;5.40;3.93;;;5.40;99.90;;;;;;5062597;28;20535;-62
2023/01/22 10:24:25;;;;;;;5.20;3.57;;;5.50;99.90;;;;;;5068904;28;20201;-62
2023/01/22 10:26:57;;;;;;;3.80;2.80;;;5.50;99.90;;;;;;5068747;28;20209;-62
2023/01/22 10:29:27;;;;;;;3.60;3.20;;;5.60;99.90;;;;;;5064880;28;20206;-63
2023/01/22 10:31:56;;;;;;;3.57;2.97;;;4.40;99.90;;;;;;5069234;28;20203;-63
2023/01/22 10:34:29;;;;;;;3.20;2.63;;;5.60;99.90;;;;;;5063909;28;20195;-63
2023/01/22 10:37:01;;;;;;;3.57;3.00;;;5.70;99.90;;;;;;5065479;28;20570;-63
2023/01/22 10:39:28;;;;;;;6.10;3.90;;;5.70;99.90;;;;;;5064910;28;20197;-63
2023/01/22 10:42:02;;;;;;;3.70;2.90;;;5.70;99.90;;;;;;5062230;28;20244;-64
2023/01/22 10:44:29;;;;;;;5.43;3.83;;;5.70;99.90;;;;;;5066490;28;20202;-62
2023/01/22 10:47:08;;;;;;;4.67;3.00;;;5.80;99.90;;;;;;5070343;28;20200;-62
2023/01/22 10:49:35;;;;;;;5.07;3.43;;;5.80;99.90;;;;;;5061453;28;20218;-63
2023/01/22 10:52:20;;;;;;;6.30;3.63;;;5.80;99.90;;;;;;5067405;28;20203;-63
2023/01/22 10:54:53;;;;;;;4.97;3.60;;;5.80;99.90;;;;;;5066153;28;20187;-63
2023/01/22 10:57:26;;;;;;;6.47;3.80;;;5.80;99.90;;;;;;5064585;28;20200;-63
2023/01/22 10:59:59;;;;;;;5.57;4.00;;;5.80;99.90;;;;;;5068290;28;20194;-62
2023/01/22 11:02:27;;;;;;;6.90;4.53;;;5.80;99.90;;;;;;5063225;28;20696;-62
2023/01/22 11:04:55;;;;;;;6.70;3.97;;;5.80;99.90;;;;;;5072309;28;20241;-63
2023/01/22 11:07:27;;;;;;;8.10;3.67;;;5.80;99.90;;;;;;5075321;28;20194;-62
2023/01/22 11:10:02;;;;;;;5.53;3.47;;;5.90;99.90;;;;;;5065573;28;20319;-64
2023/01/22 11:12:35;;;;;;;7.20;4.43;;;5.90;99.90;;;;;;5071098;28;20191;-63
2023/01/22 11:15:09;;;;;;;8.13;4.57;;;5.90;99.90;;;;;;5072928;28;20203;-63
2023/01/22 11:17:38;;;;;;;7.37;4.10;;;5.90;99.90;;;;;;5066295;28;20192;-64
2023/01/22 11:20:16;;;;;;;5.73;3.40;;;5.80;99.90;;;;;;5073903;28;20188;-62
2023/01/22 11:22:46;;;;;;;5.23;3.70;;;5.90;99.90;;;;;;5071904;28;20194;-62
2023/01/22 11:25:14;;;;;;;6.00;4.00;;;5.90;99.90;;;;;;5063464;28;20190;-62
2023/01/22 11:28:08;;;;;;;4.83;3.50;;;5.90;99.90;;;;;;5073195;28;20205;-64
2023/01/22 11:31:15;;;;;;;7.63;4.87;;;5.90;99.90;;;;;;5070289;28;20203;-62
2023/01/22 11:34:11;;;;;;;7.83;4.50;;;5.90;99.90;;;;;;5004832;28;20202;-63
2023/01/22 11:36:44;;;;;;;4.73;3.70;;;5.90;99.90;;;;;;5006918;28;20288;-63
2023/01/22 11:39:20;;;;;;;6.43;3.93;;;5.90;99.90;;;;;;5054312;28;20208;-63
2023/01/22 11:41:59;;;;;;;5.97;4.00;;;5.90;99.90;;;;;;5068649;28;20222;-63
2023/01/22 11:44:51;;;;;;;5.40;3.77;;;5.90;99.90;;;;;;5071358;28;20201;-63
2023/01/22 11:47:53;;;;;;;5.97;3.90;;;5.90;99.90;;;;;;5064598;28;20279;-63
2023/01/22 11:50:27;;;;;;;7.00;4.20;;;5.90;99.90;;;;;;5071623;28;20202;-63
2023/01/22 11:53:03;;;;;;;6.00;4.23;;;5.90;99.90;;;;;;5066677;28;20659;-63
2023/01/22 11:55:55;;;;;;;7.37;4.53;;;5.90;99.90;;;;;;5057485;28;20283;-62
2023/01/22 11:58:32;;;;;;;6.53;4.47;;;5.90;99.90;;;;;;5066649;28;20196;-62
2023/01/22 12:01:14;;;;;;;7.93;4.57;;;5.90;99.90;;;;;;5069360;28;20213;-62
2023/01/22 12:04:14;;;;;;;7.43;4.37;;;5.90;99.90;;;;;;5065217;28;20190;-61
2023/01/22 12:07:02;;;;;;;7.67;4.53;;;5.90;99.90;;;;;;5069140;28;20199;-62
2023/01/22 12:09:38;;;;;;;6.57;4.23;;;5.90;99.90;;;;;;5064028;28;20678;-62
2023/01/22 12:12:28;;;;;;;5.43;3.63;;;5.90;99.90;;;;;;5071975;28;20198;-62
2023/01/22 12:15:11;;;;;;;9.83;4.57;;;5.90;99.90;;;;;;5073005;28;20196;-62
2023/01/22 12:17:54;;;;;;;10.73;4.73;;;5.90;99.90;;;;;;5063591;28;20675;-62
2023/01/22 12:20:44;;;;;;;9.03;4.40;;;5.90;99.90;;;;;;5072281;28;20191;-62
2023/01/22 12:23:16;;;;;;;11.20;5.07;;;5.90;99.90;;;;;;5063601;28;20699;-62
2023/01/22 12:25:48;;;;;;;7.03;4.47;;;5.90;99.90;;;;;;5064657;28;20272;-61
2023/01/22 12:28:19;;;;;;;9.87;5.00;;;5.90;99.90;;;;;;5067820;28;20191;-62
2023/01/22 12:30:56;;;;;;;8.07;5.23;;;5.90;99.90;;;;;;5072310;28;20213;-62
2023/01/22 12:33:27;;;;;;;7.47;4.80;;;5.90;99.90;;;;;;5065184;28;20222;-62
2023/01/22 12:35:57;;;;;;;8.03;4.73;;;5.90;99.90;;;;;;5070304;28;20193;-62
2023/01/22 12:38:39;;;;;;;7.40;4.43;;;5.90;99.90;;;;;;5070191;28;20190;-63
2023/01/22 12:41:21;;;;;;;7.33;4.23;;;5.90;99.90;;;;;;5056998;28;20193;-63
2023/01/22 12:43:53;;;;;;;6.50;3.63;;;5.90;99.90;;;;;;5067588;28;20196;-63
2023/01/22 12:46:28;;;;;;;6.53;3.87;;;5.90;99.90;;;;;;5068348;28;20191;-62
2023/01/22 12:49:05;;;;;;;8.20;4.53;;;5.90;99.90;;;;;;5063414;28;20194;-62
2023/01/22 12:51:39;;;;;;;7.70;4.80;;;6.00;99.90;;;;;;5071515;28;20211;-62
2023/01/22 12:54:18;;;;;;;5.70;3.73;;;6.00;99.90;;;;;;5064799;28;20202;-62
2023/01/22 12:56:46;;;;;;;6.93;4.50;;;6.00;99.90;;;;;;5068370;28;20213;-63
2023/01/22 12:59:44;;;;;;;6.17;4.10;;;6.00;99.90;;;;;;5069139;28;20219;-62
2023/01/22 13:02:36;;;;;;;3.97;3.13;;;6.10;99.90;;;;;;5063198;28;20202;-62
2023/01/22 13:05:17;;;;;;;16.87;3.80;;;6.10;99.90;;;;;;5068225;28;20233;-63
2023/01/22 13:07:44;;;;;;;24.93;5.13;;;6.10;99.90;;;;;;5064140;28;20196;-63
2023/01/22 13:10:29;;;;;;;7.63;4.60;;;6.20;99.90;;;;;;5070600;28;20724;-63
2023/01/22 13:12:58;;;;;;;12.33;6.07;;;6.10;99.90;;;;;;5068091;28;20765;-64
2023/01/22 13:15:28;;;;;;;13.23;5.33;;;6.10;99.90;;;;;;5070114;28;20226;-62
2023/01/22 13:17:59;;;;;;;16.73;5.70;;;6.10;99.90;;;;;;5069268;28;20194;-62
2023/01/22 13:20:28;;;;;;;14.20;5.13;;;6.10;99.90;;;;;;5070471;28;20543;-64
2023/01/22 13:22:57;;;;;;;13.63;5.17;;;6.10;99.90;;;;;;5067887;28;20721;-63
2023/01/22 13:25:26;;;;;;;9.23;4.40;;;6.00;99.90;;;;;;5068557;28;20207;-62